createdAt,value
2018-06-22T00:01:18.212Z,41.50
2018-06-22T00:06:13.122Z,41.50
2018-06-22T00:35:58.030Z,41.70
2018-06-22T00:38:25.932Z,41.60
2018-06-22T00:40:53.920Z,41.70
2018-06-22T00:43:21.601Z,41.70
2018-06-22T00:45:49.189Z,41.60
2018-06-22T00:48:16.874Z,41.50
2018-06-22T00:58:06.562Z,41.60
2018-06-22T01:17:19.352Z,41.80
2018-06-22T01:19:47.093Z,41.70
2018-06-22T01:41:33.938Z,41.60
2018-06-22T01:44:01.504Z,41.90
2018-06-22T01:46:29.152Z,41.70
2018-06-22T01:48:56.725Z,41.90
2018-06-22T01:51:24.334Z,42.00
2018-06-22T01:53:52.003Z,41.90
2018-06-22T01:56:19.588Z,41.90
2018-06-22T01:58:47.143Z,41.90
2018-06-22T02:01:14.706Z,41.90
2018-06-22T02:03:42.189Z,42.00
2018-06-22T02:11:05.340Z,42.50
2018-06-22T02:13:32.909Z,42.50
2018-06-22T02:16:00.547Z,42.60
2018-06-22T02:18:28.089Z,42.70
2018-06-22T02:20:55.665Z,42.90
2018-06-22T02:23:23.301Z,42.90
2018-06-22T02:25:50.866Z,42.90
2018-06-22T02:45:01.491Z,43.00
2018-06-22T03:28:16.032Z,43.70
2018-06-22T03:35:38.331Z,43.70
2018-06-22T03:38:06.136Z,43.80
2018-06-22T03:57:18.562Z,44.00
2018-06-22T03:59:46.158Z,44.00
2018-06-22T04:07:08.382Z,44.00
2018-06-22T04:12:03.421Z,40.00
2018-06-22T04:14:31.104Z,41.20
2018-06-22T04:16:58.663Z,39.30
2018-06-22T04:19:26.311Z,37.80
2018-06-22T04:21:53.793Z,37.20
2018-06-22T04:41:06.405Z,35.50
2018-06-22T04:43:34.114Z,35.40
2018-06-22T04:46:01.911Z,35.60
2018-06-22T04:50:56.906Z,35.40
2018-06-22T04:53:24.569Z,35.40
2018-06-22T04:55:52.179Z,35.40
2018-06-22T05:15:07.505Z,35.50
2018-06-22T05:17:35.187Z,37.70
2018-06-22T05:20:02.702Z,36.80
2018-06-22T05:22:30.288Z,37.20
2018-06-22T05:27:25.275Z,37.30
2018-06-22T05:29:52.978Z,37.50
2018-06-22T05:32:20.569Z,37.70
2018-06-22T05:34:48.265Z,37.90
2018-06-22T05:37:15.883Z,38.00
2018-06-22T05:39:43.540Z,38.10
2018-06-22T05:42:11.259Z,38.30
2018-06-22T05:47:06.187Z,38.50
2018-06-22T05:49:33.787Z,38.70
2018-06-22T05:52:01.404Z,38.80
2018-06-22T05:54:29.009Z,38.90
2018-06-22T05:56:56.594Z,39.10
2018-06-22T06:01:51.506Z,39.10
2018-06-22T06:11:41.097Z,39.50
2018-06-22T06:14:08.981Z,39.60
2018-06-22T06:16:36.841Z,39.60
2018-06-22T06:19:04.709Z,39.70
2018-06-22T06:23:59.702Z,39.90
2018-06-22T06:26:27.311Z,39.90
2018-06-22T06:28:55.012Z,40.00
2018-06-22T06:31:22.668Z,40.00
2018-06-22T06:55:26.710Z,40.30
2018-06-22T06:57:54.378Z,40.30
2018-06-22T07:00:21.950Z,40.30
2018-06-22T07:02:49.524Z,40.30
2018-06-22T07:05:17.189Z,40.30
2018-06-22T07:07:44.852Z,40.30
2018-06-22T07:10:12.560Z,40.30
2018-06-22T07:12:40.121Z,40.30
2018-06-22T07:15:07.784Z,40.40
2018-06-22T07:17:35.622Z,40.30
2018-06-22T07:20:03.284Z,40.30
2018-06-22T07:22:47.065Z,40.40
2018-06-22T07:25:14.614Z,40.30
2018-06-22T07:30:16.274Z,40.50
2018-06-22T07:32:43.835Z,40.50
2018-06-22T07:35:11.561Z,40.50
2018-06-22T07:37:39.167Z,40.50
2018-06-22T07:42:34.174Z,40.60
2018-06-22T07:47:28.993Z,40.60
2018-06-22T07:52:23.998Z,40.70
2018-06-22T07:54:51.642Z,40.70
2018-06-22T07:57:19.234Z,40.70
2018-06-22T07:59:46.796Z,40.70
2018-06-22T08:02:14.565Z,40.80
2018-06-22T08:04:42.233Z,41.00
2018-06-22T08:07:09.720Z,41.00
2018-06-22T08:12:04.433Z,41.10
2018-06-22T08:14:31.921Z,41.20
2018-06-22T08:16:59.437Z,41.10
2018-06-22T08:19:26.930Z,41.10
2018-06-22T08:21:54.422Z,41.20
2018-06-22T08:29:16.577Z,41.20
2018-06-22T08:34:11.432Z,41.20
2018-06-22T08:36:39.120Z,41.20
2018-06-22T08:39:07.231Z,41.20
2018-06-22T08:41:34.835Z,41.20
2018-06-22T08:44:02.375Z,41.20
2018-06-22T08:46:29.944Z,41.20
2018-06-22T08:48:57.628Z,41.20
2018-06-22T08:51:25.173Z,41.30
2018-06-22T08:53:52.894Z,41.30
2018-06-22T08:56:20.496Z,41.40
2018-06-22T08:58:48.056Z,41.30
2018-06-22T09:01:15.694Z,41.40
2018-06-22T09:03:43.474Z,41.50
2018-06-22T09:06:11.025Z,41.40
2018-06-22T09:08:38.688Z,41.40
2018-06-22T09:11:06.320Z,41.40
2018-06-22T09:35:39.273Z,41.80
2018-06-22T09:38:07.018Z,41.90
2018-06-22T09:40:34.602Z,41.80
2018-06-22T09:43:02.162Z,41.80
2018-06-22T09:45:29.773Z,41.60
2018-06-22T09:47:57.460Z,41.60
2018-06-22T09:50:25.058Z,41.50
2018-06-22T09:55:20.065Z,41.40
2018-06-22T10:00:16.732Z,41.30
2018-06-22T10:02:44.302Z,41.30
2018-06-22T10:05:11.885Z,41.40
2018-06-22T10:07:39.614Z,41.30
2018-06-22T10:10:07.188Z,41.30
2018-06-22T10:12:34.920Z,41.30
2018-06-22T10:15:02.489Z,41.30
2018-06-22T10:17:30.094Z,41.40
2018-06-22T10:19:57.565Z,41.30
2018-06-22T10:22:25.048Z,41.40
2018-06-22T10:24:52.552Z,41.40
2018-06-22T10:27:20.126Z,41.50
2018-06-22T10:29:47.574Z,41.50
2018-06-22T10:32:15.488Z,41.50
2018-06-22T10:34:43.176Z,41.50
2018-06-22T10:37:10.764Z,41.50
2018-06-22T10:39:38.341Z,41.50
2018-06-22T10:44:33.287Z,41.70
2018-06-22T10:47:00.856Z,41.60
2018-06-22T10:49:28.476Z,41.60
2018-06-22T10:54:23.411Z,41.60
2018-06-22T10:56:51.037Z,41.60
2018-06-22T10:59:18.601Z,41.60
2018-06-22T11:01:46.265Z,41.50
2018-06-22T11:06:41.050Z,41.60
2018-06-22T11:09:10.118Z,41.60
2018-06-22T11:11:37.802Z,41.60
2018-06-22T11:14:05.605Z,41.60
2018-06-22T11:16:33.616Z,41.60
2018-06-22T11:19:01.535Z,41.50
2018-06-22T11:21:29.192Z,41.50
2018-06-22T11:26:24.240Z,41.50
2018-06-22T11:28:51.817Z,41.50
2018-06-22T11:31:19.780Z,41.50
2018-06-22T11:33:47.504Z,41.50
2018-06-22T11:36:15.204Z,41.50
2018-06-22T11:38:42.768Z,41.50
2018-06-22T11:41:10.344Z,41.50
2018-06-22T11:43:37.931Z,41.50
2018-06-22T11:46:05.589Z,41.50
2018-06-22T11:48:33.158Z,41.50
2018-06-22T11:51:00.876Z,41.50
2018-06-22T11:53:28.508Z,41.50
2018-06-22T11:55:56.075Z,41.50
2018-06-22T11:58:23.881Z,41.50
2018-06-22T12:00:51.377Z,41.50
2018-06-22T12:03:18.965Z,41.50
2018-06-22T12:05:46.463Z,41.50
2018-06-22T12:10:41.181Z,41.50
2018-06-22T12:15:36.047Z,41.50
2018-06-22T12:18:03.546Z,41.50
2018-06-22T12:30:20.252Z,41.50
2018-06-22T12:32:47.873Z,41.50
2018-06-22T12:52:01.552Z,41.40
2018-06-22T12:54:29.160Z,41.40
2018-06-22T12:56:56.733Z,41.30
2018-06-22T12:59:24.416Z,41.30
2018-06-22T13:01:51.996Z,41.20
2018-06-22T13:04:19.581Z,41.20
2018-06-22T13:11:41.703Z,41.10
2018-06-22T13:14:15.686Z,41.20
2018-06-22T13:16:43.192Z,41.10
2018-06-22T13:19:10.752Z,41.20
2018-06-22T13:21:44.979Z,41.20
2018-06-22T13:24:12.491Z,41.20
2018-06-22T13:26:40.191Z,41.10
2018-06-22T13:29:07.792Z,41.20
2018-06-22T13:31:35.331Z,41.20
2018-06-22T13:34:02.882Z,41.20
2018-06-22T13:36:30.434Z,41.20
2018-06-22T13:38:58.373Z,41.10
2018-06-22T14:00:38.908Z,41.20
2018-06-22T14:03:06.544Z,41.20
2018-06-22T14:22:19.623Z,41.10
2018-06-22T14:24:47.285Z,41.10
2018-06-22T14:52:07.737Z,41.50
2018-06-22T14:54:40.748Z,41.40
2018-06-22T15:13:47.814Z,41.20
2018-06-22T15:33:00.035Z,41.50
2018-06-22T15:52:18.573Z,41.60
2018-06-22T15:54:51.550Z,41.70
2018-06-22T15:57:19.204Z,41.70
2018-06-22T16:16:33.072Z,42.00
2018-06-22T16:35:46.717Z,42.20
2018-06-22T16:40:41.504Z,42.30
2018-06-22T16:43:09.172Z,42.20
2018-06-22T16:45:37.035Z,43.00
2018-06-22T17:07:23.763Z,42.60
2018-06-22T17:09:56.957Z,42.60
2018-06-22T17:53:49.328Z,42.60
2018-06-22T17:56:22.401Z,42.60
2018-06-22T17:58:55.446Z,42.90
2018-06-22T18:04:01.236Z,41.40
2018-06-22T18:06:34.664Z,41.70
2018-06-22T18:09:02.272Z,41.90
2018-06-22T18:11:35.379Z,42.20
2018-06-22T18:14:03.186Z,42.30
2018-06-22T18:16:30.801Z,42.40
2018-06-22T18:18:58.586Z,42.60
2018-06-22T18:51:52.184Z,42.60
2018-06-22T19:11:01.317Z,43.10
2018-06-22T19:46:43.017Z,43.10
2018-06-22T20:05:55.341Z,43.30
2018-06-22T20:08:23.088Z,43.40
2018-06-22T20:10:50.896Z,43.40
2018-06-22T20:13:18.743Z,43.40
2018-06-22T20:29:36.734Z,43.40
2018-06-22T20:48:55.094Z,43.30
2018-06-22T20:51:22.690Z,43.30
2018-06-22T20:53:50.269Z,43.30
2018-06-22T20:56:17.981Z,43.20
2018-06-22T21:03:40.353Z,43.80
2018-06-22T21:06:08.008Z,43.40
2018-06-22T21:08:35.649Z,43.30
2018-06-22T21:11:03.579Z,43.40
2018-06-22T21:13:31.353Z,43.40
2018-06-22T21:15:59.130Z,43.30
2018-06-22T21:37:51.843Z,43.40
2018-06-22T21:47:41.494Z,43.20
2018-06-22T21:50:09.061Z,43.00
2018-06-22T21:52:36.641Z,43.40
2018-06-22T21:55:04.286Z,43.10
2018-06-22T21:57:31.877Z,43.20
2018-06-22T21:59:59.540Z,43.10
2018-06-22T22:04:54.408Z,43.30
2018-06-22T22:07:22.012Z,43.20
2018-06-22T22:14:44.303Z,43.40
2018-06-22T22:17:12.576Z,43.20
2018-06-22T22:38:59.461Z,43.20
2018-06-22T22:41:27.037Z,43.10
2018-06-22T22:46:22.197Z,43.00
2018-06-22T22:48:49.852Z,43.00
2018-06-22T22:51:17.499Z,43.00
2018-06-22T22:53:45.185Z,43.20
2018-06-22T22:56:12.747Z,43.10
2018-06-22T23:17:52.923Z,43.20
2018-06-22T23:20:20.488Z,43.20
2018-06-22T23:22:53.800Z,43.20
2018-06-22T23:44:40.180Z,43.00
